createdAt,value
2023-04-30T00:00:12.748Z,4.63
2023-04-30T00:02:40.349Z,5.32
2023-04-30T00:05:08.498Z,5.70
2023-04-30T00:07:36.003Z,4.43
2023-04-30T00:10:05.349Z,4.32
2023-04-30T00:12:32.862Z,4.90
2023-04-30T00:15:01.390Z,5.03
2023-04-30T00:17:28.941Z,5.07
2023-04-30T00:19:56.679Z,4.78
2023-04-30T00:22:24.447Z,6.03
2023-04-30T00:24:52.005Z,4.95
2023-04-30T00:27:19.486Z,5.72
2023-04-30T00:29:47.026Z,5.90
2023-04-30T00:32:14.627Z,6.38
2023-04-30T00:34:42.647Z,6.22
2023-04-30T00:37:10.183Z,6.00
2023-04-30T00:39:37.784Z,6.00
2023-04-30T00:42:05.629Z,5.47
2023-04-30T00:44:33.477Z,6.35
2023-04-30T00:47:00.959Z,5.97
2023-04-30T00:49:28.604Z,6.28
2023-04-30T00:51:56.565Z,6.35
2023-04-30T00:54:25.273Z,6.68
2023-04-30T00:56:52.853Z,7.70
2023-04-30T00:59:20.932Z,6.60
2023-04-30T01:01:48.575Z,5.88
2023-04-30T01:04:16.473Z,6.03
2023-04-30T01:06:43.989Z,6.35
2023-04-30T01:09:11.647Z,7.15
2023-04-30T01:12:13.410Z,6.97
2023-04-30T01:15:32.543Z,6.25
2023-04-30T01:18:10.170Z,6.63
2023-04-30T01:20:47.997Z,5.87
2023-04-30T01:23:46.696Z,6.78
2023-04-30T01:26:35.588Z,5.95
2023-04-30T01:29:04.273Z,6.82
2023-04-30T01:31:31.864Z,5.85
2023-04-30T01:33:59.486Z,6.28
2023-04-30T01:37:05.860Z,6.25
2023-04-30T01:40:14.553Z,6.15
2023-04-30T01:42:49.993Z,6.50
2023-04-30T01:45:47.046Z,6.07
2023-04-30T01:49:00.570Z,6.23
2023-04-30T01:51:55.921Z,6.40
2023-04-30T01:54:38.547Z,6.85
2023-04-30T01:57:24.163Z,7.10
2023-04-30T01:59:52.802Z,6.93
2023-04-30T02:02:20.758Z,7.03
2023-04-30T02:04:48.342Z,7.57
2023-04-30T02:07:39.326Z,7.78
2023-04-30T02:10:08.714Z,5.82
2023-04-30T02:12:36.546Z,7.85
2023-04-30T02:15:06.067Z,8.13
2023-04-30T02:17:34.255Z,7.78
2023-04-30T02:20:02.095Z,7.30
2023-04-30T02:22:30.320Z,7.23
2023-04-30T02:24:57.861Z,7.17
2023-04-30T02:27:26.889Z,7.70
2023-04-30T02:29:54.700Z,8.03
2023-04-30T02:32:22.633Z,7.45
2023-04-30T02:34:50.435Z,7.18
2023-04-30T02:37:17.988Z,9.30
2023-04-30T02:39:45.515Z,7.82
2023-04-30T02:42:13.056Z,7.65
2023-04-30T02:44:41.093Z,8.37
2023-04-30T02:47:08.699Z,8.27
2023-04-30T02:49:36.430Z,7.73
2023-04-30T02:52:04.063Z,7.95
2023-04-30T02:54:31.663Z,8.70
2023-04-30T02:56:59.475Z,8.03
2023-04-30T02:59:27.223Z,8.50
2023-04-30T03:01:54.772Z,7.65
2023-04-30T03:04:22.366Z,8.73
2023-04-30T03:06:49.869Z,8.07
2023-04-30T03:09:17.902Z,8.13
2023-04-30T03:11:45.458Z,7.57
2023-04-30T03:14:13.019Z,7.30
2023-04-30T03:16:40.689Z,7.25
2023-04-30T03:19:08.351Z,9.03
2023-04-30T03:21:35.875Z,6.85
2023-04-30T03:24:03.455Z,7.90
2023-04-30T03:26:30.937Z,9.00
2023-04-30T03:28:58.552Z,8.10
2023-04-30T03:31:26.224Z,8.38
2023-04-30T03:33:53.818Z,8.23
2023-04-30T03:36:22.235Z,8.10
2023-04-30T03:38:49.760Z,8.03
2023-04-30T03:41:17.281Z,8.37
2023-04-30T03:43:44.853Z,8.13
2023-04-30T03:46:12.587Z,8.40
2023-04-30T03:48:40.239Z,8.55
2023-04-30T03:51:07.729Z,8.70
2023-04-30T03:53:35.340Z,7.57
2023-04-30T03:56:04.590Z,8.48
2023-04-30T03:58:32.626Z,9.23
2023-04-30T04:01:00.165Z,8.33
2023-04-30T04:03:27.834Z,9.52
2023-04-30T04:05:55.386Z,8.30
2023-04-30T04:08:23.254Z,8.87
2023-04-30T04:10:50.963Z,8.13
2023-04-30T04:13:18.647Z,8.97
2023-04-30T04:15:46.592Z,9.47
2023-04-30T04:18:14.123Z,8.90
2023-04-30T04:20:41.855Z,7.97
2023-04-30T04:23:09.374Z,9.93
2023-04-30T04:25:36.854Z,9.30
2023-04-30T04:28:04.658Z,9.03
2023-04-30T04:30:32.295Z,8.43
2023-04-30T04:33:00.447Z,8.25
2023-04-30T04:35:29.845Z,9.07
2023-04-30T04:37:57.814Z,8.70
2023-04-30T04:40:25.324Z,8.45
2023-04-30T04:42:53.049Z,9.23
2023-04-30T04:45:20.651Z,8.70
2023-04-30T04:47:49.325Z,9.50
2023-04-30T04:50:17.369Z,9.37
2023-04-30T04:52:45.133Z,8.57
2023-04-30T04:55:13.914Z,9.07
2023-04-30T04:57:42.481Z,8.68
2023-04-30T05:00:11.743Z,8.73
2023-04-30T05:02:39.307Z,8.10
2023-04-30T05:05:07.847Z,8.52
2023-04-30T05:07:35.409Z,8.80
2023-04-30T05:10:03.560Z,8.40
2023-04-30T05:12:31.338Z,9.03
2023-04-30T05:14:58.870Z,9.67
2023-04-30T05:17:26.398Z,10.90
2023-04-30T05:19:54.177Z,14.60
2023-04-30T05:22:21.859Z,11.17
2023-04-30T05:24:49.416Z,10.57
2023-04-30T05:27:17.048Z,10.52
2023-04-30T05:29:44.537Z,8.35
2023-04-30T05:32:12.112Z,8.55
2023-04-30T05:34:39.634Z,8.63
2023-04-30T05:37:07.113Z,8.25
2023-04-30T05:39:34.615Z,8.10
2023-04-30T05:42:03.081Z,8.95
2023-04-30T05:44:30.559Z,8.45
2023-04-30T05:46:58.074Z,7.53
2023-04-30T05:49:25.596Z,8.97
2023-04-30T05:51:53.105Z,8.23
2023-04-30T05:54:20.576Z,8.35
2023-04-30T05:56:48.424Z,9.95
2023-04-30T05:59:15.912Z,8.77
2023-04-30T06:01:43.448Z,8.43
2023-04-30T06:04:11.650Z,9.25
2023-04-30T06:06:39.284Z,7.82
2023-04-30T06:09:06.839Z,8.18
2023-04-30T06:11:34.996Z,8.73
2023-04-30T06:14:03.757Z,8.35
2023-04-30T06:16:31.596Z,7.88
2023-04-30T06:18:59.158Z,8.77
2023-04-30T06:21:26.722Z,8.50
2023-04-30T06:23:54.284Z,9.18
2023-04-30T06:26:21.813Z,8.70
2023-04-30T06:28:49.358Z,8.63
2023-04-30T06:31:16.909Z,8.25
2023-04-30T06:33:44.502Z,9.07
2023-04-30T06:36:12.207Z,9.18
2023-04-30T06:38:41.305Z,8.93
2023-04-30T06:41:09.069Z,10.05
2023-04-30T06:43:36.867Z,9.70
2023-04-30T06:46:05.074Z,9.38
2023-04-30T06:48:32.903Z,9.05
2023-04-30T06:51:00.490Z,9.15
2023-04-30T06:53:27.989Z,10.00
2023-04-30T06:55:55.832Z,9.77
2023-04-30T06:58:24.133Z,8.70
2023-04-30T07:00:52.383Z,9.73
2023-04-30T07:03:20.020Z,8.68
2023-04-30T07:05:47.883Z,10.32
2023-04-30T07:08:15.381Z,9.32
2023-04-30T07:10:42.909Z,9.68
2023-04-30T07:13:10.441Z,9.57
2023-04-30T07:15:38.422Z,9.50
2023-04-30T07:18:06.017Z,10.18
2023-04-30T07:20:33.671Z,9.70
2023-04-30T07:23:01.185Z,9.52
2023-04-30T07:25:28.669Z,9.27
2023-04-30T07:27:56.355Z,9.75
2023-04-30T07:30:25.208Z,10.50
2023-04-30T07:32:53.209Z,9.40
2023-04-30T07:35:20.756Z,7.43
2023-04-30T07:37:48.248Z,8.45
2023-04-30T07:40:25.013Z,8.55
2023-04-30T07:42:52.821Z,9.23
2023-04-30T07:45:20.450Z,8.15
2023-04-30T07:47:48.724Z,8.35
2023-04-30T07:50:17.148Z,8.30
2023-04-30T07:52:44.930Z,8.15
2023-04-30T07:55:12.986Z,8.45
2023-04-30T07:57:41.022Z,8.68
2023-04-30T08:00:09.467Z,7.75
2023-04-30T08:02:46.105Z,8.60
2023-04-30T08:05:13.811Z,8.20
2023-04-30T08:07:41.750Z,8.57
2023-04-30T08:10:09.566Z,8.48
2023-04-30T08:12:37.374Z,7.40
2023-04-30T08:15:07.362Z,7.25
2023-04-30T08:17:35.605Z,7.38
2023-04-30T08:20:07.309Z,6.60
2023-04-30T08:22:34.893Z,6.35
2023-04-30T08:25:02.684Z,5.80
2023-04-30T08:27:32.183Z,6.32
2023-04-30T08:29:59.710Z,5.95
2023-04-30T08:32:28.278Z,5.55
2023-04-30T08:34:56.023Z,6.15
2023-04-30T08:37:23.756Z,6.15
2023-04-30T08:39:51.273Z,5.75
2023-04-30T08:42:21.464Z,5.50
2023-04-30T08:44:49.003Z,5.80
2023-04-30T08:47:18.100Z,5.90
2023-04-30T08:49:46.222Z,5.40
2023-04-30T08:52:14.586Z,4.63
2023-04-30T08:54:44.193Z,5.28
2023-04-30T08:57:11.750Z,4.93
2023-04-30T08:59:39.361Z,5.15
2023-04-30T09:02:07.526Z,4.75
2023-04-30T09:04:35.205Z,4.32
2023-04-30T09:07:05.592Z,4.28
2023-04-30T09:09:40.813Z,5.15
2023-04-30T09:12:18.864Z,4.35
2023-04-30T09:15:05.136Z,4.40
2023-04-30T09:17:35.258Z,3.95
2023-04-30T09:20:13.632Z,4.10
2023-04-30T09:22:42.432Z,4.03
2023-04-30T09:25:11.402Z,4.18
2023-04-30T09:27:38.936Z,3.53
2023-04-30T09:30:08.730Z,4.18
2023-04-30T09:32:36.453Z,4.80
2023-04-30T09:35:04.764Z,4.60
2023-04-30T09:37:37.442Z,4.15
2023-04-30T09:40:05.685Z,3.77
2023-04-30T09:42:33.303Z,3.20
2023-04-30T09:45:00.858Z,3.15
2023-04-30T09:47:31.843Z,3.72
2023-04-30T09:50:00.428Z,3.72
2023-04-30T09:52:28.092Z,3.60
2023-04-30T09:54:55.558Z,3.45
2023-04-30T09:57:24.479Z,3.45
2023-04-30T09:59:54.028Z,3.75
2023-04-30T10:02:23.909Z,3.53
2023-04-30T10:04:57.989Z,3.58
2023-04-30T10:07:39.115Z,4.07
2023-04-30T10:10:10.962Z,3.90
2023-04-30T10:12:47.868Z,3.58
2023-04-30T10:15:25.745Z,3.58
2023-04-30T10:18:02.599Z,3.63
2023-04-30T10:20:34.989Z,3.25
2023-04-30T10:23:02.738Z,4.55
2023-04-30T10:25:31.487Z,3.55
2023-04-30T10:27:59.319Z,3.78
2023-04-30T10:30:27.410Z,2.88
2023-04-30T10:33:31.357Z,3.38
2023-04-30T10:36:06.605Z,6.32
2023-04-30T10:38:36.079Z,4.70
2023-04-30T10:41:07.735Z,4.40
2023-04-30T10:43:36.854Z,4.38
2023-04-30T10:46:04.702Z,4.93
2023-04-30T10:48:35.817Z,4.70
2023-04-30T10:51:04.248Z,5.35
2023-04-30T10:53:32.401Z,5.03
2023-04-30T10:56:08.230Z,6.82
2023-04-30T10:58:40.554Z,6.05
2023-04-30T11:01:17.269Z,4.22
2023-04-30T11:04:09.398Z,3.55
2023-04-30T11:07:02.278Z,3.53
2023-04-30T11:09:45.022Z,3.50
2023-04-30T11:12:28.470Z,3.30
2023-04-30T11:15:14.451Z,4.13
2023-04-30T11:17:50.489Z,5.38
2023-04-30T11:20:24.034Z,4.45
2023-04-30T11:25:57.674Z,4.82
2023-04-30T11:28:27.418Z,4.25
2023-04-30T11:31:01.443Z,4.20
2023-04-30T11:33:33.690Z,4.32
2023-04-30T11:36:02.228Z,4.13
2023-04-30T11:38:35.002Z,4.13
2023-04-30T11:41:04.639Z,6.00
2023-04-30T11:43:34.516Z,5.28
2023-04-30T11:46:09.318Z,6.47
2023-04-30T11:48:47.194Z,6.10
2023-04-30T11:51:24.051Z,4.80
2023-04-30T11:53:53.376Z,5.80
2023-04-30T11:56:23.986Z,5.03
2023-04-30T11:58:57.730Z,4.90
2023-04-30T12:01:28.496Z,4.70
2023-04-30T12:03:57.573Z,4.22
2023-04-30T12:06:28.019Z,4.63
2023-04-30T12:08:56.473Z,4.30
2023-04-30T12:11:34.366Z,4.70
2023-04-30T12:14:07.468Z,4.63
2023-04-30T12:16:51.279Z,4.05
2023-04-30T12:19:25.016Z,4.97
2023-04-30T12:21:55.068Z,4.63
2023-04-30T12:24:26.993Z,4.95
2023-04-30T12:26:54.661Z,5.13
2023-04-30T12:29:22.997Z,4.43
2023-04-30T12:31:53.167Z,4.78
2023-04-30T12:34:20.768Z,4.72
2023-04-30T12:36:48.392Z,4.35
2023-04-30T12:39:16.584Z,4.90
2023-04-30T12:41:49.610Z,4.47
2023-04-30T12:44:29.026Z,3.92
2023-04-30T12:47:00.529Z,4.05
2023-04-30T12:49:34.369Z,4.03
2023-04-30T12:52:08.528Z,4.40
2023-04-30T12:54:38.008Z,3.63
2023-04-30T12:57:10.046Z,3.28
2023-04-30T13:00:00.789Z,4.53
2023-04-30T13:02:31.998Z,2.97
2023-04-30T13:04:59.973Z,3.53
2023-04-30T13:07:36.122Z,4.13
2023-04-30T13:10:03.934Z,6.30
2023-04-30T13:12:31.476Z,5.88
2023-04-30T13:14:58.952Z,4.55
2023-04-30T13:17:26.697Z,5.78
2023-04-30T13:19:54.441Z,4.05
2023-04-30T13:22:23.754Z,4.95
2023-04-30T13:24:51.513Z,4.30
2023-04-30T13:27:19.031Z,4.32
2023-04-30T13:29:46.674Z,5.50
2023-04-30T13:32:14.248Z,4.40
2023-04-30T13:34:41.867Z,4.18
2023-04-30T13:37:09.575Z,4.72
2023-04-30T13:39:37.210Z,3.78
2023-04-30T13:42:05.396Z,3.80
2023-04-30T13:44:33.757Z,4.03
2023-04-30T13:47:01.573Z,4.40
2023-04-30T13:49:29.195Z,3.83
2023-04-30T13:51:57.257Z,5.05
2023-04-30T13:54:24.740Z,4.70
2023-04-30T13:56:52.317Z,3.70
2023-04-30T13:59:19.943Z,3.95
2023-04-30T14:01:47.560Z,3.80
2023-04-30T14:04:15.253Z,4.43
2023-04-30T14:06:43.565Z,3.88
2023-04-30T14:09:11.740Z,4.75
2023-04-30T14:11:39.785Z,5.13
2023-04-30T14:14:08.916Z,4.20
2023-04-30T14:16:36.829Z,3.20
2023-04-30T14:19:04.884Z,3.58
2023-04-30T14:21:33.191Z,4.03
2023-04-30T14:24:00.743Z,4.63
2023-04-30T14:26:28.570Z,4.22
2023-04-30T14:28:57.253Z,4.03
2023-04-30T14:31:24.958Z,4.35
2023-04-30T14:33:52.558Z,4.30
2023-04-30T14:36:20.165Z,4.22
2023-04-30T14:38:47.725Z,3.90
2023-04-30T14:41:15.379Z,7.38
2023-04-30T14:43:42.956Z,5.32
2023-04-30T14:46:11.610Z,9.63
2023-04-30T14:48:39.421Z,10.45
2023-04-30T14:51:07.622Z,9.32
2023-04-30T14:53:37.759Z,13.10
2023-04-30T14:56:07.168Z,8.52
2023-04-30T14:58:34.911Z,5.88
2023-04-30T15:01:02.537Z,5.15
2023-04-30T15:03:31.055Z,5.82
2023-04-30T15:06:00.120Z,5.82
2023-04-30T15:08:27.720Z,4.50
2023-04-30T15:10:55.951Z,3.38
2023-04-30T15:13:23.512Z,3.25
2023-04-30T15:15:51.168Z,3.78
2023-04-30T15:18:18.788Z,3.33
2023-04-30T15:20:47.085Z,3.20
2023-04-30T15:23:14.883Z,3.60
2023-04-30T15:25:44.050Z,4.45
2023-04-30T15:28:11.606Z,5.32
2023-04-30T15:30:39.232Z,4.22
2023-04-30T15:33:06.898Z,4.75
2023-04-30T15:35:34.777Z,4.35
2023-04-30T15:38:02.294Z,3.00
2023-04-30T15:40:29.772Z,3.33
2023-04-30T15:42:57.273Z,3.97
2023-04-30T15:45:25.287Z,3.28
2023-04-30T15:47:52.930Z,3.40
2023-04-30T15:50:21.257Z,3.63
2023-04-30T15:52:48.833Z,3.35
2023-04-30T15:55:16.525Z,4.05
2023-04-30T15:57:44.204Z,3.33
2023-04-30T16:00:14.515Z,3.83
2023-04-30T16:02:42.372Z,4.30
2023-04-30T16:05:10.251Z,4.10
2023-04-30T16:07:38.090Z,3.67
2023-04-30T16:10:06.916Z,3.25
2023-04-30T16:12:34.455Z,3.80
2023-04-30T16:15:02.002Z,3.72
2023-04-30T16:17:31.049Z,3.80
2023-04-30T16:20:00.231Z,4.80
2023-04-30T16:22:28.520Z,7.25
2023-04-30T16:24:56.320Z,10.45
2023-04-30T16:27:24.199Z,11.90
2023-04-30T16:29:51.790Z,10.63
2023-04-30T16:32:19.417Z,9.13
2023-04-30T16:34:47.117Z,8.50
2023-04-30T16:37:15.535Z,5.85
2023-04-30T16:39:43.071Z,5.03
2023-04-30T16:42:11.336Z,6.18
2023-04-30T16:44:39.011Z,3.83
2023-04-30T16:47:06.917Z,3.92
2023-04-30T16:49:34.730Z,3.80
2023-04-30T16:52:02.372Z,3.70
2023-04-30T16:54:29.958Z,3.80
2023-04-30T16:56:57.744Z,4.82
2023-04-30T16:59:25.263Z,3.53
2023-04-30T17:01:56.357Z,3.72
2023-04-30T17:04:24.386Z,3.88
2023-04-30T17:06:52.455Z,4.05
2023-04-30T17:09:20.101Z,4.18
2023-04-30T17:11:47.653Z,5.30
2023-04-30T17:14:15.262Z,4.13
2023-04-30T17:16:43.780Z,3.10
2023-04-30T17:19:11.274Z,3.63
2023-04-30T17:21:38.853Z,3.28
2023-04-30T17:24:06.861Z,3.30
2023-04-30T17:26:34.400Z,3.78
2023-04-30T17:29:01.959Z,4.50
2023-04-30T17:31:30.884Z,4.75
2023-04-30T17:33:59.965Z,6.10
2023-04-30T17:36:30.271Z,5.13
2023-04-30T17:38:57.821Z,13.35
2023-04-30T17:41:26.234Z,11.13
2023-04-30T17:43:53.752Z,10.68
2023-04-30T17:46:22.385Z,10.68
2023-04-30T17:48:49.940Z,10.45
2023-04-30T17:51:18.357Z,8.27
2023-04-30T17:53:45.829Z,4.68
2023-04-30T17:56:13.491Z,5.22
2023-04-30T17:58:41.016Z,7.30
2023-04-30T18:01:08.689Z,9.70
2023-04-30T18:03:36.356Z,10.48
2023-04-30T18:06:04.176Z,16.08
2023-04-30T18:08:32.435Z,22.55
2023-04-30T18:10:59.966Z,12.88
2023-04-30T18:13:27.484Z,15.07
2023-04-30T18:15:55.430Z,14.20
2023-04-30T18:18:23.256Z,8.90
2023-04-30T18:20:51.879Z,16.60
2023-04-30T18:23:20.810Z,16.92
2023-04-30T18:25:49.038Z,25.80
2023-04-30T18:28:16.555Z,14.18
2023-04-30T18:30:45.045Z,8.38
2023-04-30T18:33:12.633Z,6.88
2023-04-30T18:35:40.250Z,6.13
2023-04-30T18:38:08.194Z,4.90
2023-04-30T18:40:35.722Z,5.68
2023-04-30T18:43:03.696Z,5.38
2023-04-30T18:45:31.251Z,4.78
2023-04-30T18:47:58.805Z,4.30
2023-04-30T18:50:26.455Z,3.80
2023-04-30T18:52:54.058Z,4.07
2023-04-30T18:55:21.722Z,4.60
2023-04-30T18:57:50.558Z,6.75
2023-04-30T19:00:18.138Z,6.25
2023-04-30T19:02:45.703Z,5.40
2023-04-30T19:05:14.167Z,4.63
2023-04-30T19:07:41.775Z,4.97
2023-04-30T19:10:09.606Z,5.15
2023-04-30T19:12:37.190Z,4.57
2023-04-30T19:15:07.870Z,4.20
2023-04-30T19:17:35.443Z,4.35
2023-04-30T19:20:03.755Z,4.55
2023-04-30T19:22:31.355Z,4.05
2023-04-30T19:24:58.819Z,4.43
2023-04-30T19:27:26.420Z,4.60
2023-04-30T19:29:54.514Z,4.78
2023-04-30T19:32:22.864Z,4.72
2023-04-30T19:34:51.893Z,4.55
2023-04-30T19:37:19.413Z,4.30
2023-04-30T19:39:46.928Z,5.15
2023-04-30T19:42:15.224Z,5.18
2023-04-30T19:44:42.768Z,3.97
2023-04-30T19:47:10.369Z,3.78
2023-04-30T19:49:37.935Z,5.20
2023-04-30T19:52:07.687Z,6.32
2023-04-30T19:54:35.605Z,6.53
2023-04-30T19:57:03.578Z,5.68
2023-04-30T19:59:31.333Z,5.22
2023-04-30T20:01:59.713Z,6.50
2023-04-30T20:04:27.322Z,5.97
2023-04-30T20:06:57.308Z,7.75
2023-04-30T20:09:24.956Z,6.32
2023-04-30T20:11:52.534Z,6.47
2023-04-30T20:14:21.293Z,5.22
2023-04-30T20:16:53.536Z,5.57
2023-04-30T20:19:22.267Z,6.30
2023-04-30T20:21:50.946Z,6.05
2023-04-30T20:24:19.054Z,5.43
2023-04-30T20:26:46.688Z,9.30
2023-04-30T20:29:14.399Z,14.02
2023-04-30T20:31:42.087Z,13.85
2023-04-30T20:34:09.647Z,13.27
2023-04-30T20:36:37.239Z,15.20
2023-04-30T20:39:04.757Z,12.52
2023-04-30T20:41:32.291Z,7.63
2023-04-30T20:44:00.551Z,7.82
2023-04-30T20:46:28.631Z,7.43
2023-04-30T20:49:02.381Z,8.18
2023-04-30T20:51:30.130Z,8.23
2023-04-30T20:53:57.642Z,6.97
2023-04-30T20:56:25.840Z,7.10
2023-04-30T20:58:54.454Z,5.93
2023-04-30T21:01:22.486Z,6.47
2023-04-30T21:03:50.107Z,6.47
2023-04-30T21:06:17.859Z,7.18
2023-04-30T21:08:46.454Z,6.65
2023-04-30T21:11:16.624Z,6.13
2023-04-30T21:13:44.134Z,6.82
2023-04-30T21:16:11.804Z,8.00
2023-04-30T21:18:39.339Z,7.22
2023-04-30T21:21:09.214Z,7.82
2023-04-30T21:23:37.377Z,6.47
2023-04-30T21:26:04.931Z,5.85
2023-04-30T21:28:33.804Z,6.18
2023-04-30T21:31:08.530Z,5.97
2023-04-30T21:33:36.990Z,6.32
2023-04-30T21:36:08.039Z,7.45
2023-04-30T21:38:36.492Z,5.80
2023-04-30T21:41:04.448Z,6.38
2023-04-30T21:43:32.007Z,5.57
2023-04-30T21:46:03.164Z,6.40
2023-04-30T21:48:30.755Z,6.07
2023-04-30T21:50:58.253Z,7.18
2023-04-30T21:53:26.159Z,8.63
2023-04-30T21:55:53.687Z,7.78
2023-04-30T21:58:21.250Z,8.70
2023-04-30T22:00:49.524Z,9.77
2023-04-30T22:03:17.193Z,9.55
2023-04-30T22:05:46.218Z,8.63
2023-04-30T22:08:13.699Z,9.30
2023-04-30T22:10:41.316Z,9.25
2023-04-30T22:13:08.797Z,8.30
2023-04-30T22:15:47.119Z,9.02
2023-04-30T22:18:15.599Z,9.23
2023-04-30T22:20:43.151Z,8.68
2023-04-30T22:23:10.795Z,10.60
2023-04-30T22:25:38.432Z,9.23
2023-04-30T22:28:06.000Z,9.67
2023-04-30T22:30:33.492Z,9.52
2023-04-30T22:33:01.029Z,8.90
2023-04-30T22:35:29.421Z,8.50
2023-04-30T22:37:56.969Z,7.40
2023-04-30T22:40:24.770Z,7.80
2023-04-30T22:42:52.329Z,9.13
2023-04-30T22:45:19.899Z,8.57
2023-04-30T22:47:47.794Z,8.40
2023-04-30T22:50:15.444Z,8.00
2023-04-30T22:52:42.970Z,7.93
2023-04-30T22:55:10.985Z,9.15
2023-04-30T22:57:38.613Z,8.30
2023-04-30T23:00:07.113Z,8.63
2023-04-30T23:02:34.704Z,8.50
2023-04-30T23:05:03.905Z,8.88
2023-04-30T23:07:31.962Z,9.65
2023-04-30T23:09:59.455Z,9.03
2023-04-30T23:12:27.515Z,8.67
2023-04-30T23:14:55.212Z,8.40
2023-04-30T23:17:23.271Z,9.30
2023-04-30T23:19:50.790Z,8.75
2023-04-30T23:22:18.297Z,8.20
2023-04-30T23:24:45.837Z,8.40
2023-04-30T23:27:13.332Z,8.70
2023-04-30T23:29:40.866Z,9.43
2023-04-30T23:32:08.760Z,8.40
2023-04-30T23:34:36.283Z,7.63
2023-04-30T23:37:03.867Z,7.63
2023-04-30T23:39:31.353Z,7.87
2023-04-30T23:41:58.922Z,8.20
2023-04-30T23:44:26.419Z,7.88
2023-04-30T23:46:55.822Z,8.40
2023-04-30T23:49:24.914Z,7.73
2023-04-30T23:51:53.083Z,8.30
2023-04-30T23:54:20.862Z,8.70
2023-04-30T23:56:48.361Z,8.27
2023-04-30T23:59:16.041Z,7.83
